logo
Search for airport 
image banner adimage banner adimage banner ad
image banner ad

LOAE - Eisenstadt Lkh

Located in District Eisenstadt(Stadt), Austria

ICAO - , IATA -

Data provided by Airmate  

General information

Coordinates: N47°50'48" E16°30'49"
Elevation is 748 feet MSL.
 
View others Airports in Lower Austria

Operational data

Special qualification required
Current time UTC:
Current local time:
Weather at : LOAN - Wr. Neustadt/Ost ( 19 km )
METAR: LOAN 150900Z 30010G20KT 9999 FEW060
TAF: TAF LOAN 150815Z 1509/1518 29010KT 9999 FEW060 BECMG 1512/1513 FEW050 FEW060CB TEMPO 1513/1518 VRB15G30KT TSRA
View NOTAMs / SUP AIP / TFR affecting this airport [VIEW]
Communications frequencies: [VIEW]

Runways:

Airport contact information

Address: District Eisenstadt(Stadt) Austria

Other aviation service providers

Aviation club (not for profit)

Österreichischer Aero Club-Lv Burgenland

Österreichischer Aero Club-Lv Burgenland

Aerotechnik Eisenstadt

Aerotechnik Eisenstadt

Satellite view of LOAE